• Join FlightAware (Why Join?)
  • Login
  • US Flag 
09:20PM EDT


 

Airport Tracker/Info


-or-


 

Live Flight TrackerFlight Track Log ✈ RPA4937 ✈ 09-May-2013 ✈ KBWI - KEWR

Flight Track Log - Related Links

Times and Time Zones

All times are in EDT time to prevent confusion due to time zone crossing. See the RPA4937 flight status page for this flight to view local times or setup timezone preferences in your user account.

Time Position Orientation Groundspeed Altitude Reporting Facility
EDT Latitude Longitude Course Direction KTS MPH feet Rate Location/Type
06:06AM 39.1500 -76.5833 43° Northeast 217 250 3,800  Level Potomac TRACON
06:07AM 39.1333 -76.5000 104° East 252 290 6,000 2,220 Climbing Potomac TRACON
06:08AM 39.1500 -76.4167 76° East 271 312 8,300 2,340 Climbing Potomac TRACON
06:09AM 39.1500 -76.3167 90° East 283 326 10,700 1,320 Climbing Potomac TRACON
06:10AM 39.2799 -76.0601 46° Northeast  Level FlightAware Approximate
06:10AM 39.1667 -76.2000 80° East 325 374 11,000  Level Potomac TRACON
06:11AM 39.3576 -75.9662 42° Northeast  Level FlightAware Approximate
06:11AM 39.2333 -76.1333 38° Northeast 339 390 11,000  Level Potomac TRACON
06:12AM 39.4362 -75.8733 43° Northeast  Level FlightAware Approximate
06:12AM 39.3167 -76.0500 38° Northeast 337 388 11,000  Level Potomac TRACON
06:14AM 39.4500 -75.8833 44° Northeast 337 388 11,000  Level Philadelphia TRACON
06:15AM 39.5000 -75.7833 57° Northeast 344 396 11,000  Level Philadelphia TRACON
06:16AM 39.5500 -75.6833 57° Northeast 344 396 11,000  Level Philadelphia TRACON
06:17AM 39.5833 -75.5833 67° East 341 392 11,000  Level Philadelphia TRACON
06:18AM 39.6333 -75.4667 61° Northeast 341 392 11,000 -300 Level Philadelphia TRACON
06:19AM 39.6833 -75.3667 57° Northeast 334 384 10,400 -540 Descending Philadelphia TRACON
06:20AM 39.7333 -75.2667 57° Northeast 330 380 10,000 -240 Descending Philadelphia TRACON
06:21AM 39.7833 -75.1500 61° Northeast 324 373 10,000 -240 Level Philadelphia TRACON
06:22AM 39.8167 -75.0667 62° Northeast 276 318 9,500 -780 Descending Philadelphia TRACON
06:23AM 39.8667 -74.9667 57° Northeast 295 339 8,500 -960 Descending Philadelphia TRACON
06:24AM 39.9167 -74.9000 46° Northeast 284 327 7,600 -780 Descending Philadelphia TRACON
06:25AM 39.9667 -74.8333 46° Northeast 268 308 7,100 -360 Descending Philadelphia TRACON
06:26AM 40.0167 -74.7667 46° Northeast 265 305 7,000 -120 Descending Philadelphia TRACON
06:27AM 40.0333 -74.7333 57° Northeast 266 306 7,000  Level New York TRACON
06:28AM 40.0833 -74.6667 46° Northeast 265 305 7,000  Level New York TRACON
06:29AM 40.1333 -74.6000 46° Northeast 273 314 7,000 -60 Level New York TRACON
06:30AM 40.1833 -74.5333 46° Northeast 274 315 6,900 -540 Descending New York TRACON
06:31AM 40.2333 -74.4667 45° Northeast 278 320 6,000 -720 Descending New York TRACON
06:32AM 40.2833 -74.4167 37° Northeast 262 302 5,600 -900 Descending New York TRACON
06:33AM 40.3500 -74.3833 21° North 256 295 4,300 -1,200 Descending New York TRACON
06:34AM 40.4167 -74.3500 21° North 216 249 3,300 -780 Descending New York TRACON
06:34AM 40.4500 -74.3167 37° Northeast 196 226 3,000 -180 Descending New York TRACON
06:35AM 40.5000 -74.2833 27° Northeast 190 219 3,000  Level New York TRACON
06:36AM 40.5333 -74.2667 21° North 189 217 3,000 -480 Level New York TRACON
06:37AM 40.5833 -74.2333 27° Northeast 183 211 2,100 -900 Descending New York TRACON
06:38AM 40.6167 -74.2167 21° North 144 166 1,300 -780 Descending New York TRACON
06:39AM 40.6500 -74.1833 37° Northeast 121 139 700 -600 Descending New York TRACON